createdAt,value
2023-02-08T00:00:54.358Z,47.00
2023-02-08T00:03:21.334Z,45.53
2023-02-08T00:05:48.324Z,44.70
2023-02-08T00:08:15.462Z,47.83
2023-02-08T00:10:43.188Z,47.10
2023-02-08T00:13:10.262Z,46.30
2023-02-08T00:15:42.245Z,45.90
2023-02-08T00:18:09.719Z,41.47
2023-02-08T00:20:42.593Z,41.50
2023-02-08T00:23:09.871Z,41.60
2023-02-08T00:25:36.929Z,41.87
2023-02-08T00:28:04.864Z,42.87
2023-02-08T00:30:32.849Z,46.80
2023-02-08T00:33:01.440Z,43.27
2023-02-08T00:35:28.916Z,44.00
2023-02-08T00:37:56.128Z,40.77
2023-02-08T00:40:23.515Z,43.70
2023-02-08T00:42:50.781Z,40.10
2023-02-08T00:45:18.360Z,39.60
2023-02-08T00:47:45.251Z,44.40
2023-02-08T00:50:12.350Z,43.03
2023-02-08T00:52:39.286Z,40.50
2023-02-08T00:55:07.121Z,42.83
2023-02-08T00:57:34.594Z,43.63
2023-02-08T01:00:01.956Z,43.53
2023-02-08T01:02:29.349Z,40.33
2023-02-08T01:04:56.432Z,38.03
2023-02-08T01:07:23.507Z,38.17
2023-02-08T01:09:50.340Z,40.50
2023-02-08T01:12:17.321Z,40.10
2023-02-08T01:14:44.334Z,39.60
2023-02-08T01:17:11.192Z,38.00
2023-02-08T01:19:38.109Z,42.60
2023-02-08T01:22:04.993Z,47.10
2023-02-08T01:24:31.906Z,37.83
2023-02-08T01:26:58.830Z,42.13
2023-02-08T01:29:26.169Z,45.43
2023-02-08T01:31:53.691Z,38.17
2023-02-08T01:34:20.578Z,35.57
2023-02-08T01:36:47.475Z,37.20
2023-02-08T01:39:14.316Z,33.10
2023-02-08T01:41:44.406Z,35.43
2023-02-08T01:44:14.212Z,36.60
2023-02-08T01:46:51.154Z,41.67
2023-02-08T01:49:29.301Z,37.07
2023-02-08T01:52:01.692Z,35.80
2023-02-08T01:54:33.136Z,38.00
2023-02-08T01:56:59.987Z,38.10
2023-02-08T01:59:41.079Z,38.10
2023-02-08T02:02:12.281Z,38.43
2023-02-08T02:04:39.493Z,35.07
2023-02-08T02:07:06.964Z,40.80
2023-02-08T02:10:18.365Z,39.13
2023-02-08T02:12:45.711Z,35.63
2023-02-08T02:15:12.891Z,38.50
2023-02-08T02:17:40.473Z,33.63
2023-02-08T02:20:38.151Z,40.30
2023-02-08T02:23:54.812Z,34.63
2023-02-08T02:26:41.970Z,37.57
2023-02-08T02:29:46.672Z,36.90
2023-02-08T02:33:13.070Z,38.00
2023-02-08T02:36:06.649Z,43.90
2023-02-08T02:42:17.771Z,41.47
2023-02-08T02:45:13.673Z,38.53
2023-02-08T02:47:59.283Z,35.67
2023-02-08T02:50:43.621Z,39.23
2023-02-08T02:53:42.543Z,38.87
2023-02-08T02:56:26.230Z,34.80
2023-02-08T02:58:56.420Z,34.43
2023-02-08T03:01:26.524Z,31.43
2023-02-08T03:03:54.452Z,35.33
2023-02-08T03:10:11.357Z,36.10
2023-02-08T03:13:02.210Z,37.23
2023-02-08T03:16:02.041Z,36.87
2023-02-08T03:18:57.702Z,31.63
2023-02-08T03:21:44.658Z,36.53
2023-02-08T03:24:40.397Z,35.87
2023-02-08T03:27:20.493Z,32.83
2023-02-08T03:30:18.036Z,36.87
2023-02-08T03:32:52.715Z,33.30
2023-02-08T03:35:43.979Z,32.63
2023-02-08T03:38:16.141Z,32.07
2023-02-08T03:40:49.672Z,33.37
2023-02-08T03:43:30.516Z,37.47
2023-02-08T03:46:19.047Z,34.33
2023-02-08T03:48:51.816Z,41.73
2023-02-08T03:51:21.782Z,37.20
2023-02-08T03:53:51.432Z,40.20
2023-02-08T03:56:26.128Z,43.40
2023-02-08T03:59:01.600Z,45.13
2023-02-08T04:01:42.685Z,39.60
2023-02-08T04:04:10.263Z,39.03
2023-02-08T04:06:37.094Z,38.83
2023-02-08T04:09:04.088Z,39.87
2023-02-08T04:11:31.040Z,34.03
2023-02-08T04:13:57.942Z,35.07
2023-02-08T04:16:25.039Z,34.57
2023-02-08T04:18:51.925Z,32.10
2023-02-08T04:21:18.780Z,35.40
2023-02-08T04:23:45.645Z,35.00
2023-02-08T04:26:12.552Z,32.93
2023-02-08T04:28:39.485Z,34.77
2023-02-08T04:31:06.875Z,40.60
2023-02-08T04:33:33.989Z,38.10
2023-02-08T04:36:00.944Z,43.40
2023-02-08T04:38:27.891Z,38.53
2023-02-08T04:40:54.839Z,37.30
2023-02-08T04:43:21.765Z,42.33
2023-02-08T04:45:51.348Z,38.97
2023-02-08T04:48:19.081Z,35.20
2023-02-08T04:50:46.092Z,37.20
2023-02-08T04:53:13.075Z,35.60
2023-02-08T04:55:39.968Z,38.03
2023-02-08T04:58:06.858Z,38.90
2023-02-08T05:00:34.092Z,37.70
2023-02-08T05:03:01.103Z,35.57
2023-02-08T05:05:28.601Z,32.63
2023-02-08T05:07:55.545Z,36.00
2023-02-08T05:10:22.646Z,35.50
2023-02-08T05:12:49.563Z,39.83
2023-02-08T05:15:16.655Z,36.53
2023-02-08T05:17:43.558Z,35.43
2023-02-08T05:20:11.689Z,34.43
2023-02-08T05:22:38.650Z,39.93
2023-02-08T05:25:06.179Z,33.53
2023-02-08T05:27:35.057Z,29.53
2023-02-08T05:30:02.073Z,35.27
2023-02-08T05:32:29.464Z,33.30
2023-02-08T05:34:56.379Z,36.83
2023-02-08T05:37:23.351Z,38.57
2023-02-08T05:39:50.192Z,35.73
2023-02-08T05:42:17.073Z,38.83
2023-02-08T05:44:43.958Z,38.10
2023-02-08T05:47:10.817Z,41.53
2023-02-08T05:49:37.690Z,34.83
2023-02-08T05:52:04.788Z,35.73
2023-02-08T05:54:31.647Z,40.87
2023-02-08T05:56:58.568Z,43.93
2023-02-08T05:59:25.484Z,42.77
2023-02-08T06:01:52.376Z,42.13
2023-02-08T06:04:19.281Z,38.87
2023-02-08T06:06:46.355Z,45.33
2023-02-08T06:09:13.223Z,43.30
2023-02-08T06:11:40.124Z,37.53
2023-02-08T06:14:06.976Z,38.17
2023-02-08T06:16:33.881Z,43.30
2023-02-08T06:19:01.120Z,38.20
2023-02-08T06:21:28.473Z,45.30
2023-02-08T06:23:55.673Z,39.40
2023-02-08T06:26:22.578Z,44.10
2023-02-08T06:28:49.461Z,41.83
2023-02-08T06:31:17.103Z,43.63
2023-02-08T06:33:44.081Z,44.53
2023-02-08T06:36:10.969Z,43.47
2023-02-08T06:38:37.898Z,44.40
2023-02-08T06:41:04.926Z,43.53
2023-02-08T06:43:31.903Z,48.50
2023-02-08T06:45:58.779Z,40.10
2023-02-08T06:48:25.792Z,40.17
2023-02-08T06:50:53.929Z,35.10
2023-02-08T06:53:21.670Z,38.17
2023-02-08T06:55:51.855Z,37.90
2023-02-08T06:58:19.598Z,34.07
2023-02-08T07:00:46.733Z,41.90
2023-02-08T07:03:14.450Z,33.80
2023-02-08T07:05:45.224Z,32.70
2023-02-08T07:08:16.801Z,41.87
2023-02-08T07:10:46.143Z,39.67
2023-02-08T07:13:13.321Z,39.50
2023-02-08T07:15:40.241Z,36.23
2023-02-08T07:18:07.086Z,39.73
2023-02-08T07:20:33.941Z,35.43
2023-02-08T07:23:00.874Z,31.90
2023-02-08T07:25:27.815Z,29.33
2023-02-08T07:27:54.688Z,29.23
2023-02-08T07:30:21.905Z,22.53
2023-02-08T07:32:49.303Z,24.53
2023-02-08T07:35:16.261Z,21.53
2023-02-08T07:37:43.123Z,24.40
2023-02-08T07:40:11.163Z,20.13
2023-02-08T07:42:38.111Z,21.17
2023-02-08T07:45:05.544Z,21.03
2023-02-08T07:47:32.416Z,23.67
2023-02-08T07:49:59.342Z,22.87
2023-02-08T07:52:26.214Z,21.27
2023-02-08T07:54:53.035Z,24.43
2023-02-08T07:57:22.171Z,19.93
2023-02-08T07:59:49.088Z,23.13
2023-02-08T08:02:16.624Z,17.07
2023-02-08T08:04:43.590Z,23.30
2023-02-08T08:07:10.808Z,21.43
2023-02-08T08:09:37.699Z,23.47
2023-02-08T08:12:05.400Z,26.57
2023-02-08T08:14:32.331Z,16.70
2023-02-08T08:16:59.533Z,16.10
2023-02-08T08:19:26.791Z,19.87
2023-02-08T08:21:53.837Z,22.23
2023-02-08T08:24:20.758Z,17.97
2023-02-08T08:26:47.754Z,18.57
2023-02-08T08:29:15.107Z,16.87
2023-02-08T08:31:44.315Z,17.00
2023-02-08T08:34:11.640Z,17.50
2023-02-08T08:36:38.604Z,23.83
2023-02-08T08:39:05.724Z,21.97
2023-02-08T08:41:32.632Z,17.30
2023-02-08T08:43:59.518Z,12.60
2023-02-08T08:46:27.310Z,13.50
2023-02-08T08:48:54.257Z,12.30
2023-02-08T08:51:21.201Z,12.93
2023-02-08T08:53:48.078Z,13.73
2023-02-08T08:56:14.946Z,14.50
2023-02-08T08:58:43.516Z,12.30
2023-02-08T09:01:10.757Z,13.60
2023-02-08T09:03:37.749Z,11.60
2023-02-08T09:06:04.861Z,12.90
2023-02-08T09:08:31.802Z,10.40
2023-02-08T09:11:08.891Z,15.93
2023-02-08T09:13:36.368Z,9.40
2023-02-08T09:16:14.508Z,16.53
2023-02-08T09:18:42.331Z,12.90
2023-02-08T09:21:11.862Z,15.80
2023-02-08T09:23:38.940Z,13.03
2023-02-08T09:26:08.131Z,8.90
2023-02-08T09:28:35.077Z,13.33
2023-02-08T09:31:25.559Z,8.37
2023-02-08T09:33:56.803Z,7.80
2023-02-08T09:36:25.948Z,9.67
2023-02-08T09:39:00.424Z,11.77
2023-02-08T09:42:06.259Z,12.43
2023-02-08T09:45:04.676Z,12.70
2023-02-08T09:47:36.226Z,9.20
2023-02-08T09:50:21.264Z,11.43
2023-02-08T09:53:03.176Z,9.73
2023-02-08T09:55:51.929Z,8.97
2023-02-08T09:58:34.719Z,8.10
2023-02-08T10:01:04.111Z,7.90
2023-02-08T10:03:45.221Z,8.13
2023-02-08T10:06:15.775Z,7.73
2023-02-08T10:08:44.346Z,7.47
2023-02-08T10:11:58.273Z,9.60
2023-02-08T10:15:20.356Z,8.50
2023-02-08T10:18:26.873Z,9.10
2023-02-08T10:21:19.321Z,7.43
2023-02-08T10:24:13.403Z,6.20
2023-02-08T10:26:54.617Z,6.50
2023-02-08T10:29:51.794Z,6.43
2023-02-08T10:32:57.676Z,5.33
2023-02-08T10:35:37.848Z,5.23
2023-02-08T10:38:45.735Z,6.20
2023-02-08T10:41:22.005Z,6.20
2023-02-08T10:44:28.223Z,6.07
2023-02-08T10:47:22.661Z,7.80
2023-02-08T10:50:12.576Z,5.80
2023-02-08T10:52:39.484Z,5.23
2023-02-08T10:55:18.500Z,5.87
2023-02-08T10:57:48.450Z,5.37
2023-02-08T11:00:22.475Z,5.00
2023-02-08T11:02:52.944Z,4.90
2023-02-08T11:05:37.637Z,5.37
2023-02-08T11:08:17.745Z,6.23
2023-02-08T11:10:56.489Z,5.33
2023-02-08T11:13:26.514Z,7.97
2023-02-08T11:15:57.620Z,12.40
2023-02-08T11:18:36.193Z,10.20
2023-02-08T11:21:05.799Z,5.73
2023-02-08T11:23:36.304Z,11.00
2023-02-08T11:26:38.594Z,10.70
2023-02-08T11:29:27.173Z,5.90
2023-02-08T11:32:06.270Z,6.73
2023-02-08T11:34:39.000Z,7.90
2023-02-08T11:37:16.860Z,4.73
2023-02-08T11:39:50.017Z,15.93
2023-02-08T11:42:29.844Z,9.63
2023-02-08T11:44:59.870Z,5.27
2023-02-08T11:47:30.331Z,5.93
2023-02-08T11:50:02.939Z,5.83
2023-02-08T11:52:41.720Z,4.50
2023-02-08T11:55:28.026Z,4.53
2023-02-08T11:58:05.637Z,5.73
2023-02-08T12:00:38.300Z,3.90
2023-02-08T12:03:13.959Z,18.30
2023-02-08T12:06:16.261Z,3.20
2023-02-08T12:09:13.540Z,7.60
2023-02-08T12:11:47.438Z,3.93
2023-02-08T12:15:06.846Z,3.13
2023-02-08T12:17:59.649Z,4.90
2023-02-08T12:21:26.488Z,6.40
2023-02-08T12:24:06.907Z,10.90
2023-02-08T12:27:27.590Z,4.07
2023-02-08T12:30:25.307Z,4.03
2023-02-08T12:39:59.428Z,3.90
2023-02-08T12:42:48.586Z,3.23
2023-02-08T12:45:54.344Z,4.40
2023-02-08T12:49:06.649Z,4.10
2023-02-08T12:52:34.271Z,3.70
2023-02-08T12:55:25.849Z,5.63
2023-02-08T12:58:00.106Z,3.93
2023-02-08T13:00:30.426Z,4.60
2023-02-08T13:03:42.695Z,3.33
2023-02-08T13:06:16.733Z,3.07
2023-02-08T13:09:14.205Z,2.33
2023-02-08T13:11:55.705Z,2.23
2023-02-08T13:15:24.796Z,2.90
2023-02-08T13:18:09.999Z,3.60
2023-02-08T13:21:14.047Z,2.93
2023-02-08T13:23:52.466Z,2.60
2023-02-08T13:26:34.431Z,3.00
2023-02-08T13:29:03.888Z,2.80
2023-02-08T13:31:39.293Z,2.30
2023-02-08T13:34:27.250Z,3.77
2023-02-08T13:36:59.698Z,2.90
2023-02-08T13:39:41.613Z,3.17
2023-02-08T13:42:35.038Z,2.50
2023-02-08T13:45:03.433Z,2.60
2023-02-08T13:47:32.991Z,2.77
2023-02-08T13:50:07.930Z,2.77
2023-02-08T13:52:55.125Z,2.70
2023-02-08T13:55:53.504Z,2.87
2023-02-08T13:58:49.427Z,2.67
2023-02-08T14:01:16.190Z,2.30
2023-02-08T14:03:43.690Z,2.43
2023-02-08T14:06:24.459Z,2.90
2023-02-08T14:09:07.078Z,2.20
2023-02-08T14:11:49.705Z,8.70
2023-02-08T14:14:32.186Z,2.90
2023-02-08T14:17:29.212Z,9.03
2023-02-08T14:20:00.237Z,4.57
2023-02-08T14:22:37.614Z,3.37
2023-02-08T14:25:26.399Z,2.97
2023-02-08T14:27:59.282Z,3.53
2023-02-08T14:30:36.739Z,4.17
2023-02-08T14:33:16.961Z,4.27
2023-02-08T14:35:56.618Z,4.37
2023-02-08T14:39:03.989Z,4.17
2023-02-08T14:42:03.955Z,5.10
2023-02-08T14:45:00.772Z,6.07
2023-02-08T14:47:47.810Z,5.67
2023-02-08T14:50:20.771Z,6.00
2023-02-08T14:52:58.155Z,5.97
2023-02-08T14:55:28.391Z,5.00
2023-02-08T14:57:56.542Z,3.93
2023-02-08T15:00:28.638Z,7.70
2023-02-08T15:02:57.662Z,8.27
2023-02-08T15:05:30.094Z,7.83
2023-02-08T15:07:59.485Z,4.73
2023-02-08T15:10:28.670Z,5.00
2023-02-08T15:13:03.836Z,6.03
2023-02-08T15:15:42.869Z,5.00
2023-02-08T15:18:24.286Z,5.43
2023-02-08T15:21:06.274Z,5.70
2023-02-08T15:23:33.342Z,6.27
2023-02-08T15:26:03.564Z,6.87
2023-02-08T15:28:33.957Z,7.00
2023-02-08T15:31:10.737Z,6.40
2023-02-08T15:33:40.220Z,6.33
2023-02-08T15:36:15.706Z,6.43
2023-02-08T15:38:45.020Z,6.57
2023-02-08T15:41:24.376Z,6.17
2023-02-08T15:43:51.462Z,6.27
2023-02-08T15:46:25.685Z,8.23
2023-02-08T15:48:53.759Z,10.97
2023-02-08T15:51:23.255Z,7.37
2023-02-08T15:53:53.670Z,6.83
2023-02-08T15:56:38.058Z,6.57
2023-02-08T15:59:08.177Z,6.93
2023-02-08T16:01:35.358Z,8.60
2023-02-08T16:04:12.654Z,7.43
2023-02-08T16:06:46.428Z,6.77
2023-02-08T16:09:19.108Z,6.53
2023-02-08T16:11:50.059Z,7.03
2023-02-08T16:14:19.601Z,7.10
2023-02-08T16:16:51.376Z,6.73
2023-02-08T16:19:26.960Z,10.00
2023-02-08T16:22:22.961Z,5.20
2023-02-08T16:24:51.078Z,7.10
2023-02-08T16:27:26.938Z,8.00
2023-02-08T16:29:54.192Z,7.70
2023-02-08T16:32:29.888Z,8.13
2023-02-08T16:34:57.661Z,11.50
2023-02-08T16:37:33.652Z,13.30
2023-02-08T16:40:21.416Z,15.10
2023-02-08T16:42:48.317Z,12.60
2023-02-08T16:45:18.187Z,13.40
2023-02-08T16:47:54.729Z,17.53
2023-02-08T16:50:24.639Z,10.30
2023-02-08T16:53:03.336Z,15.70
2023-02-08T16:55:33.198Z,11.20
2023-02-08T16:58:00.606Z,13.33
2023-02-08T17:00:33.915Z,9.77
2023-02-08T17:03:01.714Z,9.93
2023-02-08T17:05:36.919Z,9.00
2023-02-08T17:08:08.010Z,8.43
2023-02-08T17:10:35.512Z,9.37
2023-02-08T17:13:20.608Z,8.77
2023-02-08T17:15:50.365Z,10.30
2023-02-08T17:18:17.472Z,11.10
2023-02-08T17:20:45.100Z,16.43
2023-02-08T17:23:12.577Z,12.10
2023-02-08T17:25:39.991Z,11.87
2023-02-08T17:28:16.119Z,11.00
2023-02-08T17:30:44.593Z,16.13
2023-02-08T17:33:20.856Z,16.30
2023-02-08T17:35:50.541Z,9.77
2023-02-08T17:38:18.524Z,9.57
2023-02-08T17:40:45.616Z,9.93
2023-02-08T17:43:13.042Z,17.50
2023-02-08T17:45:42.716Z,14.53
2023-02-08T17:48:10.230Z,10.13
2023-02-08T17:50:37.246Z,9.40
2023-02-08T17:53:04.241Z,9.20
2023-02-08T17:55:31.429Z,18.60
2023-02-08T17:57:58.563Z,11.77
2023-02-08T18:00:26.205Z,20.07
2023-02-08T18:02:55.360Z,12.67
2023-02-08T18:05:27.573Z,24.70
2023-02-08T18:07:56.475Z,27.13
2023-02-08T18:10:25.092Z,32.57
2023-02-08T18:12:52.056Z,32.50
2023-02-08T18:15:21.811Z,22.80
2023-02-08T18:17:50.508Z,34.00
2023-02-08T18:20:18.535Z,43.70
2023-02-08T18:22:46.184Z,21.40
2023-02-08T18:25:14.521Z,13.77
2023-02-08T18:27:41.807Z,18.17
2023-02-08T18:30:10.458Z,14.93
2023-02-08T18:32:37.907Z,15.57
2023-02-08T18:35:07.413Z,14.50
2023-02-08T18:37:35.461Z,13.30
2023-02-08T18:40:03.040Z,16.40
2023-02-08T18:42:31.713Z,11.83
2023-02-08T18:44:58.767Z,13.47
2023-02-08T18:47:25.698Z,13.80
2023-02-08T18:49:56.507Z,14.17
2023-02-08T18:52:24.154Z,15.77
2023-02-08T18:54:51.310Z,13.27
2023-02-08T18:57:18.688Z,14.90
2023-02-08T18:59:45.737Z,14.67
2023-02-08T19:02:19.665Z,14.30
2023-02-08T19:04:46.999Z,12.37
2023-02-08T19:07:15.082Z,8.80
2023-02-08T19:09:43.825Z,9.47
2023-02-08T19:12:10.943Z,8.43
2023-02-08T19:14:37.902Z,10.50
2023-02-08T19:17:04.844Z,9.17
2023-02-08T19:19:31.712Z,8.13
2023-02-08T19:21:58.616Z,7.67
2023-02-08T19:24:25.602Z,8.57
2023-02-08T19:26:52.537Z,14.80
2023-02-08T19:29:22.871Z,8.27
2023-02-08T19:31:50.712Z,13.50
2023-02-08T19:34:18.518Z,9.10
2023-02-08T19:36:53.588Z,10.43
2023-02-08T19:39:23.605Z,7.90
2023-02-08T19:41:52.780Z,9.27
2023-02-08T19:44:20.587Z,20.30
2023-02-08T19:46:52.701Z,15.77
2023-02-08T19:49:20.501Z,8.53
2023-02-08T19:51:47.816Z,8.23
2023-02-08T19:54:17.148Z,13.73
2023-02-08T19:56:44.203Z,11.77
2023-02-08T19:59:33.661Z,11.93
2023-02-08T20:02:02.057Z,11.67
2023-02-08T20:04:29.135Z,10.57
2023-02-08T20:06:56.224Z,8.73
2023-02-08T20:09:23.088Z,10.50
2023-02-08T20:11:59.718Z,8.50
2023-02-08T20:14:33.044Z,9.63
2023-02-08T20:17:04.439Z,10.77
2023-02-08T20:19:31.561Z,9.67
2023-02-08T20:21:58.460Z,10.30
2023-02-08T20:24:25.365Z,9.50
2023-02-08T20:26:52.262Z,8.97
2023-02-08T20:29:19.184Z,10.77
2023-02-08T20:31:50.203Z,11.73
2023-02-08T20:34:18.921Z,9.87
2023-02-08T20:37:04.545Z,12.10
2023-02-08T20:39:33.978Z,12.57
2023-02-08T20:42:00.852Z,10.57
2023-02-08T20:44:28.642Z,12.07
2023-02-08T20:46:55.755Z,12.83
2023-02-08T20:49:26.986Z,11.43
2023-02-08T20:51:54.765Z,15.13
2023-02-08T20:54:24.644Z,17.03
2023-02-08T20:56:53.629Z,19.00
2023-02-08T20:59:21.034Z,13.97
2023-02-08T21:01:47.989Z,13.73
2023-02-08T21:04:17.037Z,25.90
2023-02-08T21:06:46.075Z,19.93
2023-02-08T21:09:15.976Z,20.30
2023-02-08T21:11:44.167Z,20.27
2023-02-08T21:14:15.390Z,16.47
2023-02-08T21:16:42.415Z,23.20
2023-02-08T21:19:10.864Z,20.90
2023-02-08T21:21:37.808Z,15.77
2023-02-08T21:24:05.076Z,13.90
2023-02-08T21:26:32.208Z,13.33
2023-02-08T21:28:59.291Z,13.17
2023-02-08T21:31:26.919Z,26.20
2023-02-08T21:33:53.996Z,13.83
2023-02-08T21:36:24.731Z,16.77
2023-02-08T21:38:52.082Z,19.60
2023-02-08T21:41:22.380Z,17.43
2023-02-08T21:43:50.295Z,19.30
2023-02-08T21:46:18.256Z,19.73
2023-02-08T21:49:03.885Z,14.50
2023-02-08T21:51:49.588Z,19.23
2023-02-08T21:54:44.798Z,19.30
2023-02-08T21:57:19.224Z,20.00
2023-02-08T21:59:47.938Z,25.53
2023-02-08T22:02:21.881Z,18.40
2023-02-08T22:04:49.570Z,17.83
2023-02-08T22:07:16.536Z,22.30
2023-02-08T22:09:43.746Z,16.57
2023-02-08T22:12:15.903Z,18.53
2023-02-08T22:14:43.194Z,22.77
2023-02-08T22:17:10.774Z,27.47
2023-02-08T22:19:40.117Z,22.53
2023-02-08T22:22:07.878Z,18.03
2023-02-08T22:24:35.601Z,20.47
2023-02-08T22:27:03.071Z,21.53
2023-02-08T22:29:29.996Z,26.30
2023-02-08T22:31:58.033Z,53.53
2023-02-08T22:34:27.085Z,33.17
2023-02-08T22:36:54.021Z,69.70
2023-02-08T22:39:21.285Z,56.60
2023-02-08T22:41:48.390Z,49.97
2023-02-08T22:44:15.360Z,38.40
2023-02-08T22:46:42.289Z,41.87
2023-02-08T22:49:09.205Z,21.93
2023-02-08T22:51:36.202Z,21.70
2023-02-08T22:54:03.253Z,24.73
2023-02-08T22:56:30.154Z,22.17
2023-02-08T22:58:58.699Z,22.27
2023-02-08T23:01:27.167Z,20.07
2023-02-08T23:03:54.063Z,18.80
2023-02-08T23:06:21.026Z,23.50
2023-02-08T23:08:48.350Z,23.17
2023-02-08T23:11:15.733Z,22.53
2023-02-08T23:13:42.625Z,17.10
2023-02-08T23:16:12.616Z,19.67
2023-02-08T23:18:40.121Z,24.93
2023-02-08T23:21:08.736Z,16.30
2023-02-08T23:23:36.457Z,26.97
2023-02-08T23:26:14.021Z,23.40
2023-02-08T23:28:41.159Z,19.97
2023-02-08T23:31:10.151Z,17.03
2023-02-08T23:33:37.908Z,20.33
2023-02-08T23:36:06.419Z,21.70
2023-02-08T23:38:33.476Z,23.17
2023-02-08T23:41:12.066Z,26.90
2023-02-08T23:43:39.057Z,24.60
2023-02-08T23:46:29.953Z,20.83
2023-02-08T23:48:57.017Z,17.60
2023-02-08T23:51:25.140Z,17.27
2023-02-08T23:53:54.216Z,18.90
2023-02-08T23:56:27.396Z,22.57
2023-02-08T23:58:56.717Z,15.77
